createdAt,value
2023-05-11T00:00:48.621Z,2.00
2023-05-11T00:05:50.434Z,1.38
2023-05-11T00:10:52.179Z,1.25
2023-05-11T00:15:53.852Z,1.55
2023-05-11T00:20:56.819Z,1.17
2023-05-11T00:25:58.408Z,1.20
2023-05-11T00:31:00.034Z,1.50
2023-05-11T00:36:03.422Z,1.40
2023-05-11T00:41:04.988Z,4.05
2023-05-11T00:46:07.109Z,1.00
2023-05-11T00:51:08.954Z,0.90
2023-05-11T00:56:10.633Z,1.10
2023-05-11T01:01:12.385Z,1.05
2023-05-11T01:06:53.320Z,1.48
2023-05-11T01:12:08.299Z,0.95
2023-05-11T01:17:18.456Z,0.60
2023-05-11T01:22:38.004Z,2.72
2023-05-11T01:27:56.745Z,1.50
2023-05-11T01:33:03.366Z,1.58
2023-05-11T01:38:10.334Z,3.42
2023-05-11T01:43:20.519Z,1.45
2023-05-11T01:48:25.879Z,1.05
2023-05-11T01:53:33.272Z,1.67
2023-05-11T01:58:38.720Z,4.30
2023-05-11T02:03:42.902Z,1.83
2023-05-11T02:08:46.030Z,1.48
2023-05-11T02:13:49.422Z,1.40
2023-05-11T02:18:52.776Z,1.58
2023-05-11T02:23:56.919Z,1.35
2023-05-11T02:28:58.546Z,1.92
2023-05-11T02:34:07.069Z,1.95
2023-05-11T02:39:12.712Z,3.97
2023-05-11T02:44:18.321Z,2.42
2023-05-11T02:49:25.396Z,3.05
2023-05-11T02:54:29.144Z,1.90
2023-05-11T02:59:31.388Z,2.20
2023-05-11T03:04:34.690Z,2.10
2023-05-11T03:09:38.001Z,3.47
2023-05-11T03:14:40.323Z,3.63
2023-05-11T03:19:43.081Z,5.35
2023-05-11T03:24:46.087Z,3.33
2023-05-11T03:29:50.813Z,2.75
2023-05-11T03:34:52.692Z,4.38
2023-05-11T03:39:58.841Z,3.65
2023-05-11T03:45:06.006Z,6.03
2023-05-11T03:50:09.185Z,5.68
2023-05-11T03:55:11.304Z,4.38
2023-05-11T04:00:13.806Z,4.82
2023-05-11T04:05:19.252Z,4.97
2023-05-11T04:10:22.738Z,4.53
2023-05-11T04:15:24.335Z,4.68
2023-05-11T04:20:26.017Z,5.22
2023-05-11T04:25:27.637Z,7.25
2023-05-11T04:30:29.321Z,11.65
2023-05-11T04:35:31.825Z,5.10
2023-05-11T04:40:36.626Z,7.22
2023-05-11T04:45:38.415Z,9.93
2023-05-11T04:50:40.152Z,7.60
2023-05-11T04:55:42.687Z,6.03
2023-05-11T05:00:44.558Z,6.93
2023-05-11T05:05:47.683Z,6.03
2023-05-11T05:10:49.396Z,7.25
2023-05-11T05:15:51.133Z,7.03
2023-05-11T05:20:53.043Z,10.73
2023-05-11T05:25:54.743Z,6.70
2023-05-11T05:30:57.003Z,5.22
2023-05-11T05:36:01.496Z,6.95
2023-05-11T05:41:03.642Z,5.20
2023-05-11T05:46:09.644Z,4.07
2023-05-11T05:51:11.595Z,3.50
2023-05-11T05:56:21.849Z,3.25
2023-05-11T06:01:32.893Z,3.60
2023-05-11T06:06:34.627Z,3.05
2023-05-11T06:11:36.678Z,5.00
2023-05-11T06:16:39.027Z,3.30
2023-05-11T06:21:42.933Z,2.80
2023-05-11T06:26:44.686Z,4.65
2023-05-11T06:31:46.413Z,3.50
2023-05-11T06:36:48.817Z,3.60
2023-05-11T06:41:53.578Z,2.95
2023-05-11T06:46:56.701Z,4.43
2023-05-11T06:51:58.341Z,3.95
2023-05-11T06:56:59.991Z,6.57
2023-05-11T07:02:01.658Z,4.40
2023-05-11T07:07:03.914Z,3.67
2023-05-11T07:12:05.842Z,4.70
2023-05-11T07:17:07.466Z,3.70
2023-05-11T07:22:09.060Z,3.40
2023-05-11T07:27:11.377Z,5.22
2023-05-11T07:32:13.208Z,4.80
2023-05-11T07:37:20.526Z,4.93
2023-05-11T07:42:22.088Z,4.25
2023-05-11T07:47:24.876Z,5.72
2023-05-11T07:52:26.799Z,5.93
2023-05-11T07:57:28.420Z,3.97
2023-05-11T08:02:30.428Z,5.95
2023-05-11T08:07:32.065Z,3.17
2023-05-11T08:12:33.901Z,4.20
2023-05-11T08:17:38.569Z,4.45
2023-05-11T08:22:40.230Z,3.28
2023-05-11T08:27:50.612Z,4.40
2023-05-11T08:32:58.668Z,5.53
2023-05-11T08:38:01.509Z,5.47
2023-05-11T08:43:05.810Z,5.47
2023-05-11T08:48:07.594Z,4.97
2023-05-11T08:53:09.199Z,5.60
2023-05-11T08:58:12.398Z,4.35
2023-05-11T09:03:14.805Z,3.83
2023-05-11T09:08:19.012Z,4.55
2023-05-11T09:13:27.307Z,3.17
2023-05-11T09:18:30.141Z,4.85
2023-05-11T09:23:32.240Z,5.00
2023-05-11T09:33:47.586Z,3.50
2023-05-11T09:38:49.197Z,4.07
2023-05-11T09:43:50.913Z,4.72
2023-05-11T09:49:00.468Z,3.33
2023-05-11T09:54:15.009Z,3.92
2023-05-11T09:59:41.370Z,4.32
2023-05-11T10:04:43.025Z,4.75
2023-05-11T10:09:45.903Z,5.25
2023-05-11T10:14:49.366Z,4.50
2023-05-11T10:19:54.392Z,5.03
2023-05-11T10:24:59.858Z,4.30
2023-05-11T10:30:03.881Z,5.63
2023-05-11T10:35:06.846Z,4.20
2023-05-11T10:40:09.723Z,3.67
2023-05-11T10:45:29.846Z,3.38
2023-05-11T10:51:09.106Z,4.57
2023-05-11T10:56:20.005Z,8.23
2023-05-11T11:01:39.559Z,3.70
2023-05-11T11:11:47.978Z,4.32
2023-05-11T11:17:21.328Z,4.20
2023-05-11T11:22:35.399Z,6.00
2023-05-11T11:27:44.600Z,4.68
2023-05-11T11:32:48.439Z,5.00
2023-05-11T11:38:03.586Z,3.72
2023-05-11T11:43:18.144Z,3.47
2023-05-11T11:48:29.374Z,3.38
2023-05-11T11:53:44.630Z,3.65
2023-05-11T11:58:46.648Z,3.42
2023-05-11T12:04:11.217Z,5.90
2023-05-11T12:09:18.345Z,4.30
2023-05-11T12:14:21.645Z,4.18
2023-05-11T12:19:24.642Z,3.45
2023-05-11T12:24:26.913Z,3.70
2023-05-11T12:29:28.501Z,4.55
2023-05-11T12:34:32.678Z,4.72
2023-05-11T12:39:36.221Z,3.60
2023-05-11T12:44:37.904Z,4.68
2023-05-11T12:49:56.791Z,3.22
2023-05-11T12:55:00.785Z,3.93
2023-05-11T13:00:15.848Z,3.25
2023-05-11T13:05:19.967Z,3.20
2023-05-11T13:10:25.510Z,4.10
2023-05-11T13:15:28.682Z,4.05
2023-05-11T13:20:33.847Z,3.70
2023-05-11T13:25:55.024Z,3.10
2023-05-11T13:31:01.939Z,4.07
2023-05-11T13:36:03.857Z,3.40
2023-05-11T13:41:06.786Z,3.95
2023-05-11T13:46:08.400Z,5.00
2023-05-11T13:51:09.982Z,4.75
2023-05-11T13:56:11.912Z,4.68
2023-05-11T14:01:13.549Z,3.45
2023-05-11T14:06:15.269Z,3.55
2023-05-11T14:11:17.242Z,4.28
2023-05-11T14:16:20.858Z,4.97
2023-05-11T14:21:22.615Z,4.53
2023-05-11T14:26:24.273Z,4.22
2023-05-11T14:31:26.157Z,4.65
2023-05-11T14:36:28.115Z,4.32
2023-05-11T14:41:30.541Z,3.25
2023-05-11T14:46:32.369Z,4.68
2023-05-11T14:51:34.117Z,4.38
2023-05-11T14:56:36.292Z,3.15
2023-05-11T15:01:38.053Z,3.42
2023-05-11T15:06:39.812Z,4.57
2023-05-11T15:11:41.448Z,3.22
2023-05-11T15:16:43.141Z,2.67
2023-05-11T15:21:56.778Z,3.33
2023-05-11T15:26:58.546Z,2.42
2023-05-11T15:32:00.245Z,2.65
2023-05-11T15:37:01.906Z,2.25
2023-05-11T15:42:04.007Z,2.80
2023-05-11T15:47:06.158Z,2.90
2023-05-11T15:52:08.304Z,2.20
2023-05-11T15:57:09.960Z,2.67
2023-05-11T16:02:11.884Z,2.67
2023-05-11T16:07:13.710Z,3.20
2023-05-11T16:12:15.365Z,2.42
2023-05-11T16:17:17.092Z,2.42
2023-05-11T16:22:18.775Z,1.92
2023-05-11T16:27:20.577Z,1.70
2023-05-11T16:32:22.163Z,1.63
2023-05-11T16:37:27.014Z,2.45
2023-05-11T16:42:28.617Z,2.97
2023-05-11T16:47:33.057Z,1.85
2023-05-11T16:52:34.662Z,1.85
2023-05-11T16:57:36.342Z,2.63
2023-05-11T17:02:38.029Z,2.58
2023-05-11T17:07:39.912Z,2.22
2023-05-11T17:12:41.717Z,1.85
2023-05-11T17:17:44.859Z,2.92
2023-05-11T17:22:47.211Z,1.33
2023-05-11T17:27:49.197Z,2.20
2023-05-11T17:32:51.981Z,2.03
2023-05-11T17:37:53.816Z,3.45
2023-05-11T17:42:55.713Z,2.88
2023-05-11T17:47:57.323Z,2.40
2023-05-11T17:53:02.939Z,3.15
2023-05-11T17:58:04.559Z,2.42
2023-05-11T18:03:08.988Z,2.92
2023-05-11T18:08:10.661Z,3.08
2023-05-11T18:13:13.119Z,3.17
2023-05-11T18:18:15.038Z,2.95
2023-05-11T18:23:16.577Z,2.13
2023-05-11T18:28:20.861Z,2.60
2023-05-11T18:33:22.642Z,2.60
2023-05-11T18:38:24.296Z,2.20
2023-05-11T18:43:25.897Z,2.50
2023-05-11T18:48:27.457Z,2.58
2023-05-11T18:53:33.483Z,4.72
2023-05-11T18:58:35.030Z,3.00
2023-05-11T19:03:36.613Z,3.15
2023-05-11T19:08:38.236Z,4.05
2023-05-11T19:13:40.558Z,2.45
2023-05-11T19:18:42.260Z,5.20
2023-05-11T19:23:43.844Z,3.83
2023-05-11T19:28:45.447Z,3.55
2023-05-11T19:33:50.982Z,3.25
2023-05-11T19:38:52.694Z,2.72
2023-05-11T19:43:54.474Z,3.40
2023-05-11T19:48:56.398Z,4.95
2023-05-11T19:54:03.119Z,5.20
2023-05-11T19:59:04.923Z,6.47
2023-05-11T20:04:06.518Z,4.25
2023-05-11T20:09:08.263Z,2.88
2023-05-11T20:14:09.841Z,3.40
2023-05-11T20:19:15.231Z,4.80
2023-05-11T20:24:16.796Z,4.55
2023-05-11T20:29:18.392Z,3.40
2023-05-11T20:34:20.033Z,3.35
2023-05-11T20:39:22.013Z,3.72
2023-05-11T20:44:23.634Z,4.53
2023-05-11T20:49:37.412Z,6.22
2023-05-11T20:54:40.335Z,5.07
2023-05-11T21:04:46.915Z,5.43
2023-05-11T21:09:48.709Z,7.95
2023-05-11T21:14:50.453Z,7.90
2023-05-11T21:19:52.173Z,7.45
2023-05-11T21:24:53.831Z,6.93
2023-05-11T21:29:56.428Z,7.40
2023-05-11T21:34:58.110Z,5.13
2023-05-11T21:40:00.545Z,6.28
2023-05-11T21:45:02.962Z,5.93
2023-05-11T21:50:09.531Z,6.47
2023-05-11T21:55:11.167Z,8.88
2023-05-11T22:00:18.587Z,7.10
2023-05-11T22:05:20.824Z,8.82
2023-05-11T22:10:23.258Z,7.95
2023-05-11T22:15:25.025Z,9.48
2023-05-11T22:20:33.224Z,7.68
2023-05-11T22:25:34.864Z,11.07
2023-05-11T22:30:37.733Z,7.72
2023-05-11T22:35:39.904Z,9.70
2023-05-11T22:40:41.576Z,9.38
2023-05-11T22:45:43.260Z,10.70
2023-05-11T22:50:47.598Z,6.53
2023-05-11T22:55:49.249Z,6.30
2023-05-11T23:00:54.652Z,6.95
2023-05-11T23:05:56.616Z,8.07
2023-05-11T23:10:58.208Z,6.20
2023-05-11T23:15:59.984Z,6.78
2023-05-11T23:21:01.810Z,8.13
2023-05-11T23:26:03.476Z,8.55
2023-05-11T23:31:05.186Z,11.00
2023-05-11T23:36:07.607Z,10.35
2023-05-11T23:41:09.309Z,14.35
2023-05-11T23:46:11.192Z,15.30
2023-05-11T23:51:13.224Z,18.58
2023-05-11T23:56:15.228Z,17.80
